KPQI/PQI METAR and TAF weather

Enter ICAO airport designator
Station Type Date Time Source
KPQI METAR 2021/03/05 12:56 UTC NOAA

KPQI 051256Z AUTO 28009KT 10SM CLR M13/M19 A2950 RMK AO2 SLP028 T11281194


Station Type Date Time Source
KPQI Decoded METAR 2021/03/05 12:56 UTC NOAA

Presque Isle, ME, United States (KPQI) 46-41N 068-03W 146M
Mar 05, 2021 - 07:56 AM EST / 2021.03.05 1256 UTC
Wind: from the W (280 degrees) at 10 MPH (9 KT):0
Visibility: 10 mile(s):0
Sky conditions: clear
Temperature: 9.0 F (-12.8 C)
Windchill: -4 F (-20 C):1
Dew Point: -2.9 F (-19.4 C)
Relative Humidity: 57%
Pressure (altimeter): 29.5 in. Hg (998 hPa)
ob: KPQI 051256Z AUTO 28009KT 10SM CLR M13/M19 A2950 RMK AO2 SLP028 T11281194
cycle: 13

Station Type Date Time Source
KPQI TAF 2021/03/05 12:42 UTC NOAA

TAF KPQI 051139Z 0512/0612 29010KT P6SM OVC035
FM051400 28010G20KT P6SM SCT060
FM052300 28011G20KT P6SM SCT060
FM060200 27010KT P6SM SCT050

Example: see airport list